createdAt,value
2023-03-31T00:01:46.835Z,14.30
2023-03-31T00:04:53.306Z,14.10
2023-03-31T00:08:03.857Z,42.20
2023-03-31T00:11:08.095Z,45.00
2023-03-31T00:14:11.992Z,19.40
2023-03-31T00:17:15.633Z,51.40
2023-03-31T00:20:18.895Z,53.70
2023-03-31T00:23:27.769Z,15.90
2023-03-31T00:26:31.139Z,24.90
2023-03-31T00:29:35.921Z,15.40
2023-03-31T00:32:38.954Z,14.90
2023-03-31T00:35:41.888Z,14.90
2023-03-31T00:38:46.450Z,21.60
2023-03-31T00:41:49.373Z,22.60
2023-03-31T00:45:31.468Z,17.30
2023-03-31T00:48:37.795Z,13.70
2023-03-31T00:51:41.078Z,14.40
2023-03-31T00:54:48.194Z,20.10
2023-03-31T00:57:53.870Z,13.80
2023-03-31T01:00:58.433Z,14.80
2023-03-31T01:04:03.617Z,13.20
2023-03-31T01:07:30.551Z,21.30
2023-03-31T01:10:41.642Z,14.30
2023-03-31T01:13:46.093Z,21.00
2023-03-31T01:16:49.024Z,30.90
2023-03-31T01:19:56.206Z,24.60
2023-03-31T01:23:38.351Z,18.10
2023-03-31T01:26:56.865Z,20.50
2023-03-31T01:30:21.691Z,23.00
2023-03-31T01:33:40.207Z,18.30
2023-03-31T01:37:02.017Z,23.20
2023-03-31T01:40:26.298Z,18.90
2023-03-31T01:44:00.185Z,20.70
2023-03-31T01:47:22.895Z,18.10
2023-03-31T01:50:35.527Z,20.40
2023-03-31T01:54:02.116Z,20.60
2023-03-31T01:57:23.426Z,18.30
2023-03-31T02:00:34.813Z,18.90
2023-03-31T02:03:45.558Z,19.30
2023-03-31T02:06:56.777Z,21.90
2023-03-31T02:10:04.699Z,22.90
2023-03-31T02:13:09.577Z,21.90
2023-03-31T02:16:19.120Z,42.50
2023-03-31T02:19:23.482Z,32.40
2023-03-31T02:22:31.469Z,35.50
2023-03-31T02:25:41.447Z,22.70
2023-03-31T02:28:44.718Z,22.90
2023-03-31T02:31:56.391Z,33.50
2023-03-31T02:35:01.430Z,24.50
2023-03-31T02:38:06.896Z,31.70
2023-03-31T02:41:10.251Z,20.30
2023-03-31T02:44:13.063Z,20.10
2023-03-31T02:47:19.036Z,27.70
2023-03-31T02:50:32.055Z,19.20
2023-03-31T02:54:06.336Z,22.20
2023-03-31T02:57:27.337Z,21.40
2023-03-31T03:00:39.426Z,20.90
2023-03-31T03:03:44.698Z,22.90
2023-03-31T03:07:03.736Z,43.70
2023-03-31T03:10:30.637Z,71.20
2023-03-31T03:13:47.355Z,64.10
2023-03-31T03:16:58.146Z,53.90
2023-03-31T03:20:08.008Z,43.40
2023-03-31T03:23:10.840Z,51.00
2023-03-31T03:26:13.590Z,45.70
2023-03-31T03:29:16.551Z,39.50
2023-03-31T03:32:19.372Z,56.80
2023-03-31T03:35:22.124Z,45.40
2023-03-31T03:38:24.919Z,43.10
2023-03-31T03:45:35.416Z,46.00
2023-03-31T03:48:38.219Z,39.50
2023-03-31T03:51:40.960Z,57.10
2023-03-31T03:54:43.739Z,47.90
2023-03-31T03:57:46.491Z,48.80
2023-03-31T04:00:49.327Z,32.50
2023-03-31T04:03:52.108Z,37.10
2023-03-31T04:06:54.893Z,29.40
2023-03-31T04:09:57.620Z,33.30
2023-03-31T04:13:00.386Z,31.60
2023-03-31T04:16:03.154Z,24.00
2023-03-31T04:19:06.963Z,28.80
2023-03-31T04:22:11.856Z,23.10
2023-03-31T04:25:17.769Z,21.50
2023-03-31T04:28:20.601Z,25.10
2023-03-31T04:31:25.650Z,21.90
2023-03-31T04:34:35.472Z,25.40
2023-03-31T04:37:38.882Z,22.10
2023-03-31T04:40:41.660Z,20.20
2023-03-31T04:43:44.694Z,21.80
2023-03-31T04:46:47.433Z,27.40
2023-03-31T04:49:50.308Z,33.10
2023-03-31T04:52:53.054Z,21.80
2023-03-31T04:55:56.158Z,19.60
2023-03-31T04:58:58.968Z,18.60
2023-03-31T05:02:01.713Z,17.50
2023-03-31T05:05:04.929Z,14.70
2023-03-31T05:08:07.732Z,19.20
2023-03-31T05:11:11.289Z,23.00
2023-03-31T05:14:19.085Z,10.60
2023-03-31T05:17:22.367Z,12.90
2023-03-31T05:20:25.315Z,10.60
2023-03-31T05:23:28.016Z,9.30
2023-03-31T05:26:31.136Z,10.80
2023-03-31T05:29:33.987Z,19.30
2023-03-31T05:32:36.828Z,13.10
2023-03-31T05:35:39.614Z,12.50
2023-03-31T05:38:42.847Z,16.30
2023-03-31T05:41:45.662Z,17.80
2023-03-31T05:44:48.501Z,19.00
2023-03-31T05:47:51.585Z,16.30
2023-03-31T05:51:01.946Z,15.30
2023-03-31T05:54:06.441Z,28.40
2023-03-31T05:57:10.152Z,40.60
2023-03-31T06:00:13.982Z,31.70
2023-03-31T06:03:16.964Z,41.60
2023-03-31T06:06:20.414Z,44.40
2023-03-31T06:09:23.238Z,40.30
2023-03-31T06:12:26.079Z,33.30
2023-03-31T06:15:28.840Z,27.90
2023-03-31T06:18:34.065Z,16.10
2023-03-31T06:21:36.815Z,15.70
2023-03-31T06:24:39.550Z,13.20
2023-03-31T06:27:42.523Z,13.70
2023-03-31T06:30:45.609Z,16.30
2023-03-31T06:33:49.052Z,17.60
2023-03-31T06:36:52.250Z,24.20
2023-03-31T06:39:55.646Z,13.80
2023-03-31T06:42:58.419Z,13.10
2023-03-31T06:46:01.379Z,24.00
2023-03-31T06:49:04.528Z,13.60
2023-03-31T06:52:07.372Z,16.10
2023-03-31T06:55:10.537Z,19.60
2023-03-31T06:58:13.393Z,15.40
2023-03-31T07:01:16.229Z,14.20
2023-03-31T07:04:19.055Z,21.90
2023-03-31T07:07:21.931Z,13.80
2023-03-31T07:10:26.609Z,20.10
2023-03-31T07:13:29.865Z,19.70
2023-03-31T07:16:33.005Z,15.90
2023-03-31T07:19:38.007Z,24.40
2023-03-31T07:22:45.924Z,17.60
2023-03-31T07:25:49.040Z,17.80
2023-03-31T07:28:52.037Z,29.80
2023-03-31T07:31:55.129Z,10.10
2023-03-31T07:34:57.969Z,13.60
2023-03-31T07:38:01.043Z,15.80
2023-03-31T07:41:08.912Z,14.70
2023-03-31T07:44:13.200Z,23.60
2023-03-31T07:47:15.958Z,17.30
2023-03-31T07:50:19.255Z,12.10
2023-03-31T07:53:22.672Z,21.60
2023-03-31T07:56:26.145Z,39.90
2023-03-31T07:59:30.411Z,35.40
2023-03-31T08:02:33.695Z,50.70
2023-03-31T08:05:36.836Z,37.50
2023-03-31T08:08:43.258Z,13.90
2023-03-31T08:11:46.963Z,29.50
2023-03-31T08:14:50.984Z,25.30
2023-03-31T08:17:53.854Z,23.60
2023-03-31T08:20:56.877Z,23.90
2023-03-31T08:23:59.749Z,14.90
2023-03-31T08:27:02.726Z,39.80
2023-03-31T08:30:08.491Z,14.70
2023-03-31T08:33:12.459Z,18.90
2023-03-31T08:36:15.711Z,19.00
2023-03-31T08:39:18.819Z,22.40
2023-03-31T08:42:43.785Z,19.70
2023-03-31T08:45:48.122Z,26.60
2023-03-31T08:48:59.638Z,20.90
2023-03-31T08:52:07.774Z,24.60
2023-03-31T08:55:25.643Z,19.40
2023-03-31T08:58:45.007Z,20.20
2023-03-31T09:01:56.865Z,27.40
2023-03-31T09:05:14.958Z,13.90
2023-03-31T09:08:41.348Z,18.70
2023-03-31T09:11:51.403Z,15.60
2023-03-31T09:14:54.214Z,21.60
2023-03-31T09:18:03.857Z,9.00
2023-03-31T09:21:21.402Z,22.40
2023-03-31T09:24:34.418Z,28.00
2023-03-31T09:27:41.468Z,20.30
2023-03-31T09:30:44.494Z,19.30
2023-03-31T09:33:48.413Z,22.20
2023-03-31T09:36:52.577Z,20.00
2023-03-31T09:39:55.380Z,16.90
2023-03-31T09:43:01.179Z,16.30
2023-03-31T09:46:15.380Z,20.70
2023-03-31T09:49:21.764Z,9.50
2023-03-31T09:52:30.321Z,13.50
2023-03-31T09:55:48.123Z,10.60
2023-03-31T09:58:50.900Z,15.10
2023-03-31T10:01:58.928Z,13.50
2023-03-31T10:05:04.521Z,12.40
2023-03-31T10:08:16.949Z,13.70
2023-03-31T10:11:20.442Z,11.10
2023-03-31T10:14:33.845Z,9.20
2023-03-31T10:17:54.962Z,9.10
2023-03-31T10:20:58.411Z,13.10
2023-03-31T10:24:02.801Z,8.80
2023-03-31T10:27:13.966Z,8.00
2023-03-31T10:30:24.043Z,12.90
2023-03-31T10:33:29.573Z,9.70
2023-03-31T10:36:32.867Z,7.80
2023-03-31T10:39:36.691Z,8.40
2023-03-31T10:42:39.519Z,8.40
2023-03-31T10:45:51.378Z,8.20
2023-03-31T10:48:54.084Z,12.70
2023-03-31T10:51:59.389Z,12.90
2023-03-31T10:55:02.250Z,10.90
2023-03-31T10:58:49.296Z,5.20
2023-03-31T11:02:42.960Z,6.10
2023-03-31T11:06:04.674Z,5.60
2023-03-31T11:09:16.730Z,11.60
2023-03-31T11:12:44.047Z,10.20
2023-03-31T11:16:02.822Z,9.10
2023-03-31T11:19:08.654Z,8.90
2023-03-31T11:22:49.704Z,5.20
2023-03-31T11:26:02.957Z,9.30
2023-03-31T11:29:53.328Z,5.30
2023-03-31T11:32:58.760Z,5.70
2023-03-31T11:36:32.273Z,16.20
2023-03-31T11:39:56.933Z,11.90
2023-03-31T11:43:05.671Z,7.30
2023-03-31T11:46:22.733Z,7.10
2023-03-31T11:49:32.400Z,4.90
2023-03-31T11:52:40.908Z,4.70
2023-03-31T11:55:47.615Z,8.90
2023-03-31T12:02:23.187Z,3.20
2023-03-31T12:05:28.794Z,3.30
2023-03-31T12:08:47.887Z,9.30
2023-03-31T12:11:57.791Z,8.10
2023-03-31T12:15:18.613Z,5.40
2023-03-31T12:18:26.500Z,6.00
2023-03-31T12:21:30.843Z,7.00
2023-03-31T12:24:34.594Z,7.80
2023-03-31T12:27:41.706Z,4.00
2023-03-31T12:30:48.166Z,4.60
2023-03-31T12:34:01.636Z,6.90
2023-03-31T12:37:13.632Z,11.00
2023-03-31T12:41:00.930Z,5.90
2023-03-31T12:44:12.697Z,6.70
2023-03-31T12:47:33.476Z,5.80
2023-03-31T12:51:05.911Z,5.40
2023-03-31T12:54:11.900Z,6.00
2023-03-31T12:57:21.486Z,7.10
2023-03-31T13:00:26.859Z,8.50
2023-03-31T13:03:35.488Z,6.20
2023-03-31T13:06:38.182Z,7.70
2023-03-31T13:09:44.237Z,7.70
2023-03-31T13:13:03.453Z,4.80
2023-03-31T13:16:06.223Z,12.20
2023-03-31T13:19:12.698Z,21.90
2023-03-31T13:22:32.291Z,4.80
2023-03-31T13:25:56.022Z,4.20
2023-03-31T13:29:18.967Z,25.10
2023-03-31T13:32:26.237Z,114.30
2023-03-31T13:35:34.038Z,93.10
2023-03-31T13:38:52.168Z,79.00
2023-03-31T13:41:54.887Z,22.60
2023-03-31T13:45:23.942Z,13.60
2023-03-31T13:48:48.766Z,50.90
2023-03-31T13:51:59.577Z,4.50
2023-03-31T13:55:22.495Z,3.30
2023-03-31T13:58:43.833Z,10.70
2023-03-31T14:02:35.088Z,5.10
2023-03-31T14:05:56.478Z,7.80
2023-03-31T14:09:05.867Z,8.60
2023-03-31T14:12:35.475Z,12.80
2023-03-31T14:15:44.457Z,17.00
2023-03-31T14:18:51.315Z,10.50
2023-03-31T14:22:20.043Z,6.70
2023-03-31T14:25:31.872Z,8.80
2023-03-31T14:28:47.536Z,7.80
2023-03-31T14:32:14.883Z,9.80
2023-03-31T14:35:38.611Z,5.10
2023-03-31T14:38:41.636Z,17.20
2023-03-31T14:41:44.747Z,7.40
2023-03-31T14:44:48.840Z,8.60
2023-03-31T14:48:03.170Z,11.70
2023-03-31T14:51:10.180Z,8.80
2023-03-31T14:54:18.527Z,10.80
2023-03-31T14:57:45.246Z,17.10
2023-03-31T15:00:48.475Z,14.90
2023-03-31T15:03:53.590Z,48.20
2023-03-31T15:06:59.325Z,13.60
2023-03-31T15:10:03.759Z,22.60
2023-03-31T15:13:15.806Z,24.40
2023-03-31T15:16:42.059Z,11.70
2023-03-31T15:19:45.544Z,70.10
2023-03-31T15:22:48.328Z,8.10
2023-03-31T15:26:02.034Z,7.90
2023-03-31T15:29:26.853Z,7.50
2023-03-31T15:32:33.200Z,4.70
2023-03-31T15:35:36.793Z,10.80
2023-03-31T15:38:40.838Z,3.20
2023-03-31T15:41:46.963Z,8.30
2023-03-31T15:44:55.965Z,6.30
2023-03-31T15:48:02.685Z,6.70
2023-03-31T15:51:20.800Z,11.50
2023-03-31T15:54:32.742Z,5.50
2023-03-31T15:57:36.463Z,12.20
2023-03-31T16:00:53.251Z,26.70
2023-03-31T16:03:56.901Z,14.30
2023-03-31T16:07:05.606Z,13.70
2023-03-31T16:10:22.108Z,14.30
2023-03-31T16:13:25.718Z,16.30
2023-03-31T16:16:29.736Z,59.90
2023-03-31T16:19:41.614Z,48.90
2023-03-31T16:22:48.974Z,21.70
2023-03-31T16:25:52.524Z,15.80
2023-03-31T16:28:57.594Z,13.90
2023-03-31T16:32:11.276Z,15.60
2023-03-31T16:35:14.231Z,18.80
2023-03-31T16:38:17.850Z,27.20
2023-03-31T16:41:24.248Z,8.60
2023-03-31T16:44:27.255Z,6.40
2023-03-31T16:47:35.896Z,5.20
2023-03-31T16:50:40.607Z,8.90
2023-03-31T16:53:44.516Z,22.00
2023-03-31T16:56:48.074Z,16.50
2023-03-31T16:59:50.887Z,14.90
2023-03-31T17:02:53.860Z,16.40
2023-03-31T17:05:59.219Z,17.60
2023-03-31T17:09:02.918Z,10.50
2023-03-31T17:12:06.126Z,8.90
2023-03-31T17:15:10.369Z,9.30
2023-03-31T17:18:13.404Z,13.20
2023-03-31T17:21:19.651Z,10.00
2023-03-31T17:24:22.397Z,14.30
2023-03-31T17:27:27.314Z,15.70
2023-03-31T17:30:31.779Z,12.80
2023-03-31T17:33:34.547Z,17.20
2023-03-31T17:36:37.330Z,18.00
2023-03-31T17:39:40.045Z,14.70
2023-03-31T17:42:44.773Z,19.80
2023-03-31T17:45:47.828Z,12.30
2023-03-31T17:48:51.394Z,18.60
2023-03-31T17:51:54.187Z,17.10
2023-03-31T17:54:57.779Z,25.00
2023-03-31T17:58:01.637Z,27.90
2023-03-31T18:01:07.049Z,35.60
2023-03-31T18:04:10.417Z,24.00
2023-03-31T18:07:13.211Z,35.60
2023-03-31T18:10:18.652Z,24.90
2023-03-31T18:13:21.757Z,19.10
2023-03-31T18:16:24.927Z,28.60
2023-03-31T18:19:27.742Z,19.30
2023-03-31T18:22:30.517Z,27.00
2023-03-31T18:25:33.535Z,26.20
2023-03-31T18:28:55.961Z,51.90
2023-03-31T18:31:59.222Z,34.70
2023-03-31T18:35:02.533Z,19.20
2023-03-31T18:38:05.832Z,15.30
2023-03-31T18:41:09.391Z,58.20
2023-03-31T18:44:18.794Z,89.70
2023-03-31T18:47:21.868Z,35.00
2023-03-31T18:50:25.976Z,39.50
2023-03-31T18:53:30.112Z,46.00
2023-03-31T18:56:33.252Z,63.50
2023-03-31T18:59:36.068Z,89.10
2023-03-31T19:02:38.940Z,75.80
2023-03-31T19:05:42.517Z,25.60
2023-03-31T19:08:45.304Z,19.50
2023-03-31T19:11:48.768Z,13.60
2023-03-31T19:14:52.507Z,13.70
2023-03-31T19:17:55.718Z,22.70
2023-03-31T19:20:59.603Z,13.10
2023-03-31T19:24:02.919Z,14.60
2023-03-31T19:27:06.520Z,14.90
2023-03-31T19:30:18.081Z,17.80
2023-03-31T19:33:20.945Z,28.50
2023-03-31T19:36:23.786Z,17.70
2023-03-31T19:39:28.248Z,20.20
2023-03-31T19:42:33.035Z,51.80
2023-03-31T19:45:36.812Z,36.90
2023-03-31T19:48:39.704Z,27.30
2023-03-31T19:51:42.478Z,34.00
2023-03-31T19:54:45.264Z,34.70
2023-03-31T19:57:48.123Z,44.80
2023-03-31T20:00:52.892Z,36.50
2023-03-31T20:03:56.707Z,35.00
2023-03-31T20:06:59.754Z,28.50
2023-03-31T20:10:02.631Z,25.00
2023-03-31T20:13:05.501Z,27.90
2023-03-31T20:16:11.952Z,26.40
2023-03-31T20:19:16.651Z,29.30
2023-03-31T20:22:19.449Z,27.50
2023-03-31T20:25:22.311Z,22.30
2023-03-31T20:28:25.034Z,28.70
2023-03-31T20:31:30.390Z,34.70
2023-03-31T20:34:34.288Z,19.30
2023-03-31T20:37:37.007Z,53.70
2023-03-31T20:40:40.824Z,101.40
2023-03-31T20:43:44.078Z,60.80
2023-03-31T20:46:47.659Z,81.90
2023-03-31T20:49:50.496Z,85.10
2023-03-31T20:52:53.210Z,79.60
2023-03-31T20:55:56.048Z,62.20
2023-03-31T20:58:59.818Z,95.00
2023-03-31T21:02:03.290Z,82.60
2023-03-31T21:05:06.831Z,105.70
2023-03-31T21:08:10.776Z,46.10
2023-03-31T21:11:14.424Z,55.30
2023-03-31T21:14:17.350Z,52.80
2023-03-31T21:17:20.794Z,41.90
2023-03-31T21:20:23.517Z,54.20
2023-03-31T21:23:27.948Z,44.00
2023-03-31T21:26:30.734Z,62.60
2023-03-31T21:29:33.804Z,50.60
2023-03-31T21:32:36.642Z,73.60
2023-03-31T21:35:39.498Z,52.20
2023-03-31T21:38:42.933Z,27.60
2023-03-31T21:41:45.713Z,34.90
2023-03-31T21:44:48.722Z,39.40
2023-03-31T21:47:52.609Z,55.30
2023-03-31T21:50:56.459Z,56.30
2023-03-31T21:53:59.201Z,36.70
2023-03-31T21:57:02.078Z,37.00
2023-03-31T22:00:12.277Z,51.60
2023-03-31T22:03:26.344Z,70.60
2023-03-31T22:06:30.698Z,81.40
2023-03-31T22:09:33.461Z,64.90
2023-03-31T22:12:36.218Z,69.40
2023-03-31T22:15:42.201Z,69.90
2023-03-31T22:18:47.174Z,42.20
2023-03-31T22:21:50.461Z,43.00
2023-03-31T22:24:53.214Z,69.50
2023-03-31T22:27:56.489Z,38.30
2023-03-31T22:30:59.256Z,62.10
2023-03-31T22:34:02.077Z,25.90
2023-03-31T22:37:05.009Z,44.40
2023-03-31T22:40:09.707Z,36.50
2023-03-31T22:43:12.546Z,37.60
2023-03-31T22:46:16.059Z,84.40
2023-03-31T22:49:19.198Z,82.50
2023-03-31T22:52:22.272Z,99.90
2023-03-31T22:55:25.032Z,87.50
2023-03-31T22:58:28.834Z,47.80
2023-03-31T23:01:32.014Z,61.80
2023-03-31T23:04:34.771Z,69.10
2023-03-31T23:07:38.622Z,34.20
2023-03-31T23:10:41.370Z,47.20
2023-03-31T23:13:45.423Z,42.90
2023-03-31T23:16:48.255Z,41.80
2023-03-31T23:19:51.332Z,37.50
2023-03-31T23:22:54.244Z,39.90
2023-03-31T23:26:00.849Z,33.30
2023-03-31T23:29:04.380Z,47.40
2023-03-31T23:32:07.398Z,67.10
2023-03-31T23:35:11.553Z,63.70
2023-03-31T23:38:14.465Z,47.60
2023-03-31T23:41:18.438Z,33.40
2023-03-31T23:44:21.277Z,18.90
2023-03-31T23:47:24.718Z,26.80
2023-03-31T23:50:28.289Z,23.70
2023-03-31T23:53:31.772Z,19.20
2023-03-31T23:56:34.561Z,18.10
2023-03-31T23:59:37.283Z,16.90
